createdAt,value
2018-10-18T00:00:54.569Z,100817.41
2018-10-18T00:03:25.342Z,100810.88
2018-10-18T00:05:56.032Z,100820.78
2018-10-18T00:08:26.680Z,100816.13
2018-10-18T00:10:57.307Z,100823.23
2018-10-18T00:13:28.005Z,100819.04
2018-10-18T00:15:58.646Z,100821.39
2018-10-18T00:18:29.337Z,100818.89
2018-10-18T00:21:00.068Z,100826.95
2018-10-18T00:23:30.791Z,100821.34
2018-10-18T00:26:01.495Z,100825.81
2018-10-18T00:28:33.294Z,100826.43
2018-10-18T00:31:03.986Z,100824.23
2018-10-18T00:33:34.723Z,100822.70
2018-10-18T00:36:05.915Z,100829.33
2018-10-18T00:38:36.620Z,100825.59
2018-10-18T00:41:07.418Z,100819.92
2018-10-18T00:43:38.107Z,100827.95
2018-10-18T00:46:08.743Z,100835.13
2018-10-18T00:48:39.435Z,100835.23
2018-10-18T00:51:10.108Z,100833.04
2018-10-18T00:53:43.612Z,100837.11
2018-10-18T00:56:14.463Z,100840.69
2018-10-18T00:58:45.042Z,100844.76
2018-10-18T01:01:15.712Z,100847.50
2018-10-18T01:03:46.348Z,100851.55
2018-10-18T01:06:17.415Z,100861.38
2018-10-18T01:08:48.326Z,100867.70
2018-10-18T01:11:19.655Z,100860.85
2018-10-18T01:13:50.324Z,100856.97
2018-10-18T01:16:20.979Z,100856.09
2018-10-18T01:18:51.605Z,100855.33
2018-10-18T01:21:22.303Z,100858.99
2018-10-18T01:23:53.037Z,100864.84
2018-10-18T01:26:23.634Z,100863.83
2018-10-18T01:28:54.330Z,100862.06
2018-10-18T01:31:24.967Z,100871.41
2018-10-18T01:33:55.633Z,100870.63
2018-10-18T01:36:26.248Z,100873.28
2018-10-18T01:38:56.881Z,100875.06
2018-10-18T01:41:27.539Z,100872.13
2018-10-18T01:43:58.191Z,100881.56
2018-10-18T01:46:28.968Z,100877.95
2018-10-18T01:48:59.662Z,100875.25
2018-10-18T01:51:30.291Z,100873.73
2018-10-18T01:54:01.104Z,100878.27
2018-10-18T01:56:31.719Z,100884.44
2018-10-18T01:59:02.400Z,100878.77
2018-10-18T02:01:33.096Z,100876.58
2018-10-18T02:04:03.844Z,100879.77
2018-10-18T02:06:34.485Z,100881.93
2018-10-18T02:09:08.139Z,100879.77
2018-10-18T02:11:38.899Z,100880.70
2018-10-18T02:14:09.647Z,100886.45
2018-10-18T02:16:40.317Z,100889.66
2018-10-18T02:19:10.998Z,100889.75
2018-10-18T02:21:41.652Z,100888.42
2018-10-18T02:24:12.619Z,100897.06
2018-10-18T02:26:43.117Z,100891.08
2018-10-18T02:29:13.793Z,100895.45
2018-10-18T02:31:44.442Z,100893.58
2018-10-18T02:34:15.113Z,100894.27
2018-10-18T02:36:45.803Z,100892.39
2018-10-18T02:39:16.448Z,100894.49
2018-10-18T02:41:47.108Z,100891.79
2018-10-18T02:44:17.749Z,100890.92
2018-10-18T02:46:48.404Z,100893.11
2018-10-18T02:49:19.128Z,100898.70
2018-10-18T02:51:49.736Z,100897.13
2018-10-18T02:54:20.563Z,100901.89
2018-10-18T02:56:51.110Z,100894.19
2018-10-18T02:59:21.851Z,100892.66
2018-10-18T03:01:52.560Z,100899.48
2018-10-18T03:04:23.205Z,100898.30
2018-10-18T03:06:53.876Z,100893.22
2018-10-18T03:09:24.607Z,100898.06
2018-10-18T03:11:55.361Z,100897.81
2018-10-18T03:14:25.963Z,100900.94
2018-10-18T03:16:56.649Z,100895.02
2018-10-18T03:19:27.412Z,100897.89
2018-10-18T03:21:58.069Z,100897.80
2018-10-18T03:24:28.720Z,100899.03
2018-10-18T03:26:59.411Z,100901.70
2018-10-18T03:29:30.027Z,100907.52
2018-10-18T03:32:00.728Z,100912.92
2018-10-18T03:34:31.407Z,100909.72
2018-10-18T03:37:02.077Z,100918.45
2018-10-18T03:39:32.711Z,100910.89
2018-10-18T03:42:03.472Z,100918.86
2018-10-18T03:44:34.065Z,100918.52
2018-10-18T03:47:04.776Z,100922.41
2018-10-18T03:49:35.460Z,100921.17
2018-10-18T03:52:07.573Z,100918.18
2018-10-18T03:54:38.259Z,100919.38
2018-10-18T03:57:08.891Z,100922.34
2018-10-18T03:59:39.668Z,100924.59
2018-10-18T04:02:10.304Z,100930.86
2018-10-18T04:04:40.977Z,100927.88
2018-10-18T04:07:11.674Z,100934.75
2018-10-18T04:09:42.312Z,100936.48
2018-10-18T04:12:13.049Z,100936.70
2018-10-18T04:14:43.677Z,100932.16
2018-10-18T04:17:14.332Z,100932.78
2018-10-18T04:19:45.034Z,100930.04
2018-10-18T04:22:15.699Z,100934.48
2018-10-18T04:24:46.508Z,100934.95
2018-10-18T04:27:17.220Z,100930.28
2018-10-18T04:29:48.257Z,100931.14
2018-10-18T04:32:19.225Z,100934.36
2018-10-18T04:34:50.101Z,100933.31
2018-10-18T04:37:25.735Z,100934.08
2018-10-18T04:39:56.386Z,100939.02
2018-10-18T04:42:27.034Z,100938.34
2018-10-18T04:44:57.695Z,100940.03
2018-10-18T04:47:28.627Z,100940.44
2018-10-18T04:49:59.151Z,100944.88
2018-10-18T04:52:29.874Z,100946.58
2018-10-18T04:55:00.531Z,100949.64
2018-10-18T04:57:31.163Z,100950.05
2018-10-18T05:00:01.817Z,100945.56
2018-10-18T05:02:32.547Z,100950.50
2018-10-18T05:05:20.201Z,100947.75
2018-10-18T05:07:50.954Z,100955.56
2018-10-18T05:10:21.604Z,100952.66
2018-10-18T05:12:52.270Z,100946.28
2018-10-18T05:15:23.033Z,100945.56
2018-10-18T05:17:53.704Z,100947.75
2018-10-18T05:20:24.391Z,100957.14
2018-10-18T05:22:55.160Z,100955.87
2018-10-18T05:25:25.877Z,100951.06
2018-10-18T05:27:56.468Z,100954.64
2018-10-18T05:30:27.164Z,100960.50
2018-10-18T05:32:57.829Z,100957.53
2018-10-18T05:35:28.535Z,100964.81
2018-10-18T05:37:59.228Z,100967.01
2018-10-18T05:40:29.853Z,100965.37
2018-10-18T05:43:00.615Z,100970.27
2018-10-18T05:45:31.244Z,100967.31
2018-10-18T05:48:01.922Z,100980.52
2018-10-18T05:50:32.652Z,100977.38
2018-10-18T05:53:03.411Z,100980.89
2018-10-18T05:55:34.094Z,100987.84
2018-10-18T05:58:04.787Z,100989.33
2018-10-18T06:00:35.463Z,100986.97
2018-10-18T06:03:06.396Z,100988.70
2018-10-18T06:05:37.125Z,100988.24
2018-10-18T06:08:07.817Z,100991.73
2018-10-18T06:10:55.231Z,100988.52
2018-10-18T06:13:25.892Z,100999.14
2018-10-18T06:15:56.634Z,100995.01
2018-10-18T06:18:27.330Z,100988.59
2018-10-18T06:20:57.998Z,100990.86
2018-10-18T06:23:28.742Z,100990.77
2018-10-18T06:25:59.391Z,100990.95
2018-10-18T06:28:30.116Z,100997.62
2018-10-18T06:31:00.791Z,101001.70
2018-10-18T06:33:31.440Z,101004.04
2018-10-18T06:36:02.044Z,100998.27
2018-10-18T06:38:32.763Z,100998.48
2018-10-18T06:41:03.516Z,101000.28
2018-10-18T06:43:40.348Z,101000.52
2018-10-18T06:46:12.748Z,101001.60
2018-10-18T06:48:43.879Z,101012.53
2018-10-18T06:51:14.531Z,101012.30
2018-10-18T06:53:45.215Z,101014.25
2018-10-18T06:56:15.829Z,101017.15
2018-10-18T06:58:46.543Z,101013.63
2018-10-18T07:01:17.252Z,101015.45
2018-10-18T07:03:47.908Z,101019.13
2018-10-18T07:06:18.937Z,101027.41
2018-10-18T07:08:49.568Z,101026.91
2018-10-18T07:11:20.321Z,101025.98
2018-10-18T07:13:51.595Z,101031.20
2018-10-18T07:16:23.188Z,101032.75
2018-10-18T07:18:53.868Z,101029.78
2018-10-18T07:21:24.456Z,101030.62
2018-10-18T07:23:55.103Z,101028.21
2018-10-18T07:26:26.062Z,101031.30
2018-10-18T07:28:56.824Z,101031.77
2018-10-18T07:31:27.535Z,101028.23
2018-10-18T07:33:58.406Z,101031.05
2018-10-18T07:36:29.984Z,101027.27
2018-10-18T07:39:00.810Z,101030.55
2018-10-18T07:41:31.438Z,101034.09
2018-10-18T07:44:02.270Z,101042.47
2018-10-18T07:46:32.891Z,101048.39
2018-10-18T07:49:03.552Z,101049.98
2018-10-18T07:51:34.224Z,101056.63
2018-10-18T07:54:05.289Z,101049.61
2018-10-18T07:56:35.920Z,101058.70
2018-10-18T07:59:06.915Z,101060.41
2018-10-18T08:01:38.494Z,101065.04
2018-10-18T08:04:09.256Z,101065.50
2018-10-18T08:06:40.258Z,101069.02
2018-10-18T08:09:13.555Z,101063.70
2018-10-18T08:11:44.398Z,101064.79
2018-10-18T08:14:15.028Z,101064.02
2018-10-18T08:16:45.705Z,101072.91
2018-10-18T08:19:16.453Z,101078.02
2018-10-18T08:21:46.982Z,101074.86
2018-10-18T08:24:17.625Z,101076.96
2018-10-18T08:26:48.301Z,101081.30
2018-10-18T08:29:18.983Z,101085.49
2018-10-18T08:31:49.719Z,101076.44
2018-10-18T08:34:20.318Z,101081.66
2018-10-18T08:36:50.951Z,101084.97
2018-10-18T08:39:21.606Z,101081.97
2018-10-18T08:41:52.256Z,101075.88
2018-10-18T08:44:22.949Z,101083.83
2018-10-18T08:46:53.587Z,101084.09
2018-10-18T08:49:24.261Z,101089.47
2018-10-18T08:51:54.849Z,101090.76
2018-10-18T08:54:25.503Z,101100.28
2018-10-18T08:56:56.172Z,101098.58
2018-10-18T08:59:26.883Z,101101.15
2018-10-18T09:01:57.464Z,101102.42
2018-10-18T09:04:28.175Z,101106.41
2018-10-18T09:06:58.845Z,101104.39
2018-10-18T09:09:29.498Z,101107.10
2018-10-18T09:12:00.095Z,101103.43
2018-10-18T09:14:30.764Z,101099.84
2018-10-18T09:17:01.506Z,101104.60
2018-10-18T09:19:32.113Z,101100.76
2018-10-18T09:22:02.768Z,101105.77
2018-10-18T09:24:33.403Z,101106.84
2018-10-18T09:27:04.087Z,101111.72
2018-10-18T09:29:34.779Z,101106.63
2018-10-18T09:32:05.528Z,101108.33
2018-10-18T09:34:36.206Z,101107.39
2018-10-18T09:37:07.314Z,101109.16
2018-10-18T09:39:38.003Z,101107.47
2018-10-18T09:42:08.648Z,101100.36
2018-10-18T09:44:39.251Z,101105.12
2018-10-18T09:47:09.910Z,101103.37
2018-10-18T09:49:40.617Z,101106.20
2018-10-18T09:52:11.246Z,101098.59
2018-10-18T09:54:41.822Z,101104.70
2018-10-18T09:57:12.451Z,101118.06
2018-10-18T09:59:43.090Z,101117.60
2018-10-18T10:02:19.019Z,101114.83
2018-10-18T10:04:49.687Z,101118.24
2018-10-18T10:07:20.345Z,101119.88
2018-10-18T10:09:51.042Z,101118.09
2018-10-18T10:12:21.657Z,101122.67
2018-10-18T10:14:52.284Z,101119.59
2018-10-18T10:17:22.979Z,101121.59
2018-10-18T10:19:53.682Z,101117.62
2018-10-18T10:22:24.300Z,101123.91
2018-10-18T10:24:54.990Z,101130.20
2018-10-18T10:27:25.604Z,101133.30
2018-10-18T10:29:56.295Z,101134.64
2018-10-18T10:32:26.936Z,101132.98
2018-10-18T10:34:57.670Z,101129.25
2018-10-18T10:37:28.304Z,101125.16
2018-10-18T10:39:58.986Z,101131.12
2018-10-18T10:42:29.643Z,101128.66
2018-10-18T10:45:00.286Z,101124.26
2018-10-18T10:47:30.968Z,101116.95
2018-10-18T10:50:01.560Z,101118.16
2018-10-18T10:52:32.240Z,101117.05
2018-10-18T10:55:02.906Z,101118.13
2018-10-18T10:57:33.604Z,101115.58
2018-10-18T11:00:04.467Z,101115.24
2018-10-18T11:02:35.073Z,101118.95
2018-10-18T11:05:06.449Z,101111.72
2018-10-18T11:07:37.119Z,101110.63
2018-10-18T11:10:07.892Z,101106.43
2018-10-18T11:12:38.552Z,101105.14
2018-10-18T11:15:09.339Z,101089.61
2018-10-18T11:17:39.927Z,101097.13
2018-10-18T11:20:10.599Z,101089.27
2018-10-18T11:22:41.191Z,101091.52
2018-10-18T11:25:11.848Z,101088.37
2018-10-18T11:27:42.469Z,101087.69
2018-10-18T11:30:13.155Z,101084.20
2018-10-18T11:32:43.749Z,101085.36
2018-10-18T11:35:14.367Z,101088.56
2018-10-18T11:37:44.966Z,101086.81
2018-10-18T11:40:22.139Z,101087.34
2018-10-18T11:42:52.729Z,101091.50
2018-10-18T11:45:23.464Z,101083.20
2018-10-18T11:47:54.169Z,101086.41
2018-10-18T11:50:24.790Z,101081.44
2018-10-18T11:52:55.576Z,101084.67
2018-10-18T11:55:26.292Z,101082.39
2018-10-18T11:57:56.966Z,101084.52
2018-10-18T12:00:27.652Z,101076.38
2018-10-18T12:02:58.328Z,101078.72
2018-10-18T12:05:29.032Z,101075.25
2018-10-18T12:07:59.682Z,101081.48
2018-10-18T12:10:30.308Z,101071.89
2018-10-18T12:13:01.115Z,101074.98
2018-10-18T12:15:31.805Z,101074.19
2018-10-18T12:18:02.414Z,101076.30
2018-10-18T12:20:33.148Z,101072.14
2018-10-18T12:23:03.880Z,101070.60
2018-10-18T12:25:34.534Z,101069.55
2018-10-18T12:28:05.160Z,101067.65
2018-10-18T12:30:35.824Z,101069.02
2018-10-18T12:33:06.501Z,101072.01
2018-10-18T12:35:37.133Z,101073.98
2018-10-18T12:38:07.882Z,101075.98
2018-10-18T12:40:38.465Z,101081.06
2018-10-18T12:43:09.128Z,101083.48
2018-10-18T12:45:39.790Z,101084.02
2018-10-18T12:48:10.529Z,101080.69
2018-10-18T12:50:41.098Z,101082.66
2018-10-18T12:53:11.748Z,101077.77
2018-10-18T12:55:42.453Z,101083.12
2018-10-18T12:58:13.222Z,101080.52
2018-10-18T13:00:43.918Z,101086.78
2018-10-18T13:03:14.635Z,101093.17
2018-10-18T13:05:45.313Z,101098.80
2018-10-18T13:08:16.076Z,101099.97
2018-10-18T13:10:46.611Z,101098.52
2018-10-18T13:13:17.285Z,101098.52
2018-10-18T13:15:47.962Z,101104.28
2018-10-18T13:18:18.828Z,101103.40
2018-10-18T13:20:49.487Z,101096.05
2018-10-18T13:23:20.179Z,101096.80
2018-10-18T13:25:50.827Z,101099.20
2018-10-18T13:28:21.446Z,101097.33
2018-10-18T13:30:52.091Z,101097.92
2018-10-18T13:33:22.743Z,101099.03
2018-10-18T13:35:53.389Z,101096.52
2018-10-18T13:38:24.008Z,101096.05
2018-10-18T13:40:54.676Z,101100.11
2018-10-18T13:43:25.315Z,101096.87
2018-10-18T13:45:55.960Z,101086.14
2018-10-18T13:48:26.623Z,101098.84
2018-10-18T13:50:57.248Z,101084.20
2018-10-18T13:53:27.962Z,101088.30
2018-10-18T13:55:58.613Z,101082.22
2018-10-18T13:58:32.091Z,101080.87
2018-10-18T14:01:02.810Z,101079.11
2018-10-18T14:03:33.522Z,101074.42
2018-10-18T14:06:04.189Z,101074.47
2018-10-18T14:08:34.909Z,101081.66
2018-10-18T14:11:05.707Z,101082.83
2018-10-18T14:13:36.360Z,101087.73
2018-10-18T14:16:07.389Z,101082.11
2018-10-18T14:18:38.149Z,101083.45
2018-10-18T14:21:09.301Z,101083.48
2018-10-18T14:23:40.094Z,101080.94
2018-10-18T14:26:10.749Z,101074.78
2018-10-18T14:28:41.618Z,101080.87
2018-10-18T14:31:12.275Z,101078.98
2018-10-18T14:33:43.175Z,101074.78
2018-10-18T14:36:13.763Z,101075.37
2018-10-18T14:38:44.527Z,101068.61
2018-10-18T14:41:15.102Z,101074.23
2018-10-18T14:43:45.763Z,101071.93
2018-10-18T14:46:16.430Z,101073.33
2018-10-18T14:48:47.080Z,101076.80
2018-10-18T14:51:17.781Z,101079.62
2018-10-18T14:53:48.415Z,101076.81
2018-10-18T14:56:19.055Z,101077.70
2018-10-18T14:58:49.791Z,101074.94
2018-10-18T15:01:20.410Z,101079.16
2018-10-18T15:03:51.113Z,101070.52
2018-10-18T15:06:21.709Z,101072.70
2018-10-18T15:08:52.391Z,101077.86
2018-10-18T15:11:23.020Z,101076.05
2018-10-18T15:13:53.679Z,101083.18
2018-10-18T15:16:24.468Z,101081.56
2018-10-18T15:18:55.234Z,101085.45
2018-10-18T15:21:26.574Z,101080.34
2018-10-18T15:23:57.269Z,101082.50
2018-10-18T15:26:27.966Z,101089.08
2018-10-18T15:28:58.653Z,101082.79
2018-10-18T15:31:29.401Z,101085.67
2018-10-18T15:34:00.138Z,101079.95
2018-10-18T15:36:30.865Z,101074.80
2018-10-18T15:39:01.604Z,101083.94
2018-10-18T15:41:32.267Z,101087.84
2018-10-18T15:44:02.984Z,101091.36
2018-10-18T15:46:33.707Z,101095.36
2018-10-18T15:49:04.467Z,101090.34
2018-10-18T15:51:35.268Z,101099.20
2018-10-18T15:54:07.078Z,101098.15
2018-10-18T15:56:37.806Z,101105.16
2018-10-18T15:59:08.605Z,101103.07
2018-10-18T16:01:39.196Z,101108.70
2018-10-18T16:04:09.859Z,101101.55
2018-10-18T16:06:40.718Z,101101.95
2018-10-18T16:09:13.551Z,101104.80
2018-10-18T16:11:44.247Z,101105.34
2018-10-18T16:14:15.029Z,101107.58
2018-10-18T16:16:45.635Z,101118.50
2018-10-18T16:19:16.447Z,101113.45
2018-10-18T16:21:47.109Z,101113.78
2018-10-18T16:24:18.243Z,101120.76
2018-10-18T16:26:50.164Z,101121.08
2018-10-18T16:29:20.892Z,101126.03
2018-10-18T16:31:51.466Z,101123.64
2018-10-18T16:34:22.120Z,101128.70
2018-10-18T16:36:53.801Z,101121.86
2018-10-18T16:39:24.936Z,101124.86
2018-10-18T16:41:55.601Z,101126.84
2018-10-18T16:44:27.232Z,101125.39
2018-10-18T16:46:58.791Z,101126.97
2018-10-18T16:49:29.421Z,101130.50
2018-10-18T16:52:00.093Z,101127.89
2018-10-18T16:54:30.769Z,101131.86
2018-10-18T16:57:01.376Z,101133.42
2018-10-18T16:59:32.057Z,101137.41
2018-10-18T17:02:02.774Z,101138.14
2018-10-18T17:04:33.785Z,101137.95
2018-10-18T17:07:04.456Z,101133.38
2018-10-18T17:09:35.076Z,101136.19
2018-10-18T17:12:06.212Z,101136.52
2018-10-18T17:14:36.829Z,101140.20
2018-10-18T17:17:07.497Z,101143.39
2018-10-18T17:19:38.243Z,101146.38
2018-10-18T17:22:09.430Z,101140.44
2018-10-18T17:24:40.061Z,101145.31
2018-10-18T17:27:10.720Z,101152.70
2018-10-18T17:29:41.421Z,101152.52
2018-10-18T17:32:12.116Z,101159.31
2018-10-18T17:34:43.320Z,101160.70
2018-10-18T17:37:13.953Z,101161.48
2018-10-18T17:39:45.518Z,101164.22
2018-10-18T17:42:16.207Z,101167.79
2018-10-18T17:44:47.225Z,101171.31
2018-10-18T17:47:17.999Z,101169.43
2018-10-18T17:49:48.899Z,101176.43
2018-10-18T17:52:19.558Z,101174.08
2018-10-18T17:54:50.276Z,101181.02
2018-10-18T17:57:21.026Z,101180.38
2018-10-18T17:59:52.206Z,101179.37
2018-10-18T18:02:23.128Z,101180.59
2018-10-18T18:04:53.871Z,101185.45
2018-10-18T18:07:24.569Z,101175.53
2018-10-18T18:09:55.204Z,101183.95
2018-10-18T18:12:25.890Z,101184.80
2018-10-18T18:14:57.594Z,101181.93
2018-10-18T18:17:28.880Z,101183.01
2018-10-18T18:19:59.923Z,101187.07
2018-10-18T18:22:32.308Z,101184.30
2018-10-18T18:25:02.948Z,101187.38
2018-10-18T18:27:35.096Z,101192.84
2018-10-18T18:30:09.552Z,101194.63
2018-10-18T18:32:41.082Z,101202.42
2018-10-18T18:35:11.821Z,101200.44
2018-10-18T18:37:43.481Z,101202.67
2018-10-18T18:40:14.146Z,101204.55
2018-10-18T18:42:44.811Z,101208.64
2018-10-18T18:45:21.563Z,101206.33
2018-10-18T18:47:52.270Z,101207.27
2018-10-18T18:50:22.917Z,101210.13
2018-10-18T18:56:27.478Z,101208.27
2018-10-18T18:58:58.131Z,101210.46
2018-10-18T19:01:28.850Z,101212.33
2018-10-18T19:03:59.484Z,101212.78
2018-10-18T19:06:30.170Z,101214.03
2018-10-18T19:09:00.793Z,101218.34
2018-10-18T19:11:31.795Z,101223.30
2018-10-18T19:14:02.474Z,101225.04
2018-10-18T19:16:33.208Z,101222.23
2018-10-18T19:19:04.191Z,101223.72
2018-10-18T19:21:34.900Z,101225.58
2018-10-18T19:24:05.740Z,101225.95
2018-10-18T19:26:36.379Z,101225.30
2018-10-18T19:29:07.170Z,101230.27
2018-10-18T19:31:37.808Z,101237.30
2018-10-18T19:34:08.488Z,101239.03
2018-10-18T19:36:39.584Z,101233.41
2018-10-18T19:39:10.776Z,101238.25
2018-10-18T19:41:41.452Z,101238.75
2018-10-18T19:44:12.522Z,101238.12
2018-10-18T19:46:43.236Z,101240.31
2018-10-18T19:49:14.051Z,101245.17
2018-10-18T19:51:44.712Z,101244.92
2018-10-18T19:54:15.355Z,101244.05
2018-10-18T19:56:46.018Z,101246.78
2018-10-18T19:59:16.683Z,101252.95
2018-10-18T20:01:47.324Z,101249.43
2018-10-18T20:04:18.443Z,101255.59
2018-10-18T20:06:49.080Z,101261.23
2018-10-18T20:09:19.767Z,101257.84
2018-10-18T20:14:26.394Z,101256.26
2018-10-18T20:16:57.044Z,101260.98
2018-10-18T20:19:27.751Z,101254.81
2018-10-18T20:21:58.411Z,101253.81
2018-10-18T20:24:29.187Z,101263.73
2018-10-18T20:26:59.788Z,101267.91
2018-10-18T20:29:30.419Z,101264.82
2018-10-18T20:32:01.082Z,101260.84
2018-10-18T20:34:31.724Z,101264.77
2018-10-18T20:37:02.429Z,101261.32
2018-10-18T20:39:33.072Z,101262.50
2018-10-18T20:42:03.758Z,101258.87
2018-10-18T20:44:34.377Z,101255.34
2018-10-18T20:47:05.158Z,101255.21
2018-10-18T20:49:35.770Z,101260.31
2018-10-18T20:52:06.758Z,101260.77
2018-10-18T20:54:37.354Z,101260.97
2018-10-18T20:57:08.039Z,101259.06
2018-10-18T20:59:38.823Z,101253.36
2018-10-18T21:02:09.449Z,101255.03
2018-10-18T21:04:40.222Z,101251.55
2018-10-18T21:07:10.878Z,101249.66
2018-10-18T21:09:41.636Z,101258.27
2018-10-18T21:12:12.236Z,101255.21
2018-10-18T21:14:42.912Z,101254.16
2018-10-18T21:17:13.553Z,101257.19
2018-10-18T21:19:44.201Z,101251.44
2018-10-18T21:22:14.866Z,101253.02
2018-10-18T21:24:45.601Z,101248.86
2018-10-18T21:27:16.243Z,101254.16
2018-10-18T21:29:46.893Z,101247.38
2018-10-18T21:32:17.544Z,101248.59
2018-10-18T21:34:48.235Z,101245.34
2018-10-18T21:37:18.894Z,101245.80
2018-10-18T21:39:49.567Z,101240.23
2018-10-18T21:42:20.252Z,101240.76
2018-10-18T21:44:51.535Z,101241.83
2018-10-18T21:47:22.313Z,101241.45
2018-10-18T21:49:53.002Z,101239.44
2018-10-18T21:52:23.625Z,101239.17
2018-10-18T21:54:54.358Z,101243.30
2018-10-18T21:57:25.011Z,101241.98
2018-10-18T21:59:55.623Z,101243.41
2018-10-18T22:02:26.269Z,101245.28
2018-10-18T22:04:56.920Z,101248.41
2018-10-18T22:07:27.542Z,101243.70
2018-10-18T22:09:58.192Z,101240.37
2018-10-18T22:12:28.871Z,101240.05
2018-10-18T22:14:59.599Z,101237.91
2018-10-18T22:17:30.217Z,101240.36
2018-10-18T22:20:00.881Z,101239.03
2018-10-18T22:22:31.533Z,101239.25
2018-10-18T22:25:02.165Z,101232.03
2018-10-18T22:27:32.849Z,101229.77
2018-10-18T22:30:03.543Z,101229.77
2018-10-18T22:32:34.199Z,101233.09
2018-10-18T22:35:04.939Z,101228.97
2018-10-18T22:37:35.607Z,101224.20
2018-10-18T22:40:07.413Z,101222.96
2018-10-18T22:42:38.070Z,101220.64
2018-10-18T22:45:09.503Z,101218.98
2018-10-18T22:47:40.123Z,101213.42
2018-10-18T22:50:10.825Z,101212.36
2018-10-18T22:52:41.494Z,101215.66
2018-10-18T22:55:12.164Z,101215.09
2018-10-18T22:57:42.816Z,101216.72
2018-10-18T23:00:13.517Z,101218.91
2018-10-18T23:02:44.178Z,101212.55
2018-10-18T23:05:14.806Z,101214.95
2018-10-18T23:07:45.482Z,101212.36
2018-10-18T23:10:16.172Z,101213.37
2018-10-18T23:12:46.810Z,101216.87
2018-10-18T23:15:17.535Z,101217.66
2018-10-18T23:17:48.071Z,101216.12
2018-10-18T23:20:18.773Z,101208.85
2018-10-18T23:22:49.404Z,101212.30
2018-10-18T23:25:20.036Z,101206.14
2018-10-18T23:27:50.736Z,101211.28
2018-10-18T23:30:21.384Z,101205.53
2018-10-18T23:32:52.097Z,101211.89
2018-10-18T23:35:22.781Z,101212.34
2018-10-18T23:37:53.423Z,101215.59
2018-10-18T23:40:24.068Z,101219.49
2018-10-18T23:42:54.746Z,101211.33
2018-10-18T23:45:25.398Z,101211.25
2018-10-18T23:47:56.045Z,101211.44
2018-10-18T23:50:26.746Z,101211.93
2018-10-18T23:52:57.394Z,101210.91
2018-10-18T23:55:28.060Z,101210.08
2018-10-18T23:57:58.742Z,101207.09
